sensor_id;sensor_type;location;lat;lon;timestamp;P1;durP1;ratioP1;P2;durP2;ratioP2
3006;SDS011;1513;47.650;10.720;2022-09-09T00:01:35;1.70;;;1.60;;
3006;SDS011;1513;47.650;10.720;2022-09-09T00:08:01;1.77;;;1.37;;
3006;SDS011;1513;47.650;10.720;2022-09-09T00:11:07;2.90;;;1.73;;
3006;SDS011;1513;47.650;10.720;2022-09-09T00:14:21;1.50;;;1.40;;
3006;SDS011;1513;47.650;10.720;2022-09-09T00:20:45;1.40;;;1.23;;
3006;SDS011;1513;47.650;10.720;2022-09-09T00:23:54;2.67;;;1.50;;
3006;SDS011;1513;47.650;10.720;2022-09-09T00:27:04;1.83;;;1.40;;
3006;SDS011;1513;47.650;10.720;2022-09-09T00:30:24;6.30;;;1.37;;
3006;SDS011;1513;47.650;10.720;2022-09-09T00:33:29;1.73;;;1.30;;
3006;SDS011;1513;47.650;10.720;2022-09-09T00:36:33;1.30;;;1.20;;
3006;SDS011;1513;47.650;10.720;2022-09-09T00:39:42;2.63;;;2.30;;
3006;SDS011;1513;47.650;10.720;2022-09-09T00:42:52;1.90;;;1.80;;
3006;SDS011;1513;47.650;10.720;2022-09-09T00:50:02;2.40;;;2.20;;
3006;SDS011;1513;47.650;10.720;2022-09-09T01:06:58;5.67;;;2.50;;
3006;SDS011;1513;47.650;10.720;2022-09-09T01:10:27;2.53;;;2.20;;
3006;SDS011;1513;47.650;10.720;2022-09-09T01:13:39;4.60;;;2.23;;
3006;SDS011;1513;47.650;10.720;2022-09-09T01:16:45;2.47;;;2.27;;
3006;SDS011;1513;47.650;10.720;2022-09-09T01:23:18;2.40;;;2.20;;
3006;SDS011;1513;47.650;10.720;2022-09-09T01:26:36;2.20;;;2.10;;
3006;SDS011;1513;47.650;10.720;2022-09-09T01:29:47;2.53;;;2.00;;
3006;SDS011;1513;47.650;10.720;2022-09-09T01:32:53;4.10;;;2.33;;
3006;SDS011;1513;47.650;10.720;2022-09-09T01:36:02;3.57;;;2.47;;
3006;SDS011;1513;47.650;10.720;2022-09-09T01:39:10;2.63;;;2.43;;
3006;SDS011;1513;47.650;10.720;2022-09-09T01:42:15;3.30;;;2.27;;
3006;SDS011;1513;47.650;10.720;2022-09-09T01:45:18;2.73;;;2.03;;
3006;SDS011;1513;47.650;10.720;2022-09-09T01:48:22;3.00;;;1.90;;
3006;SDS011;1513;47.650;10.720;2022-09-09T01:51:27;2.67;;;2.33;;
3006;SDS011;1513;47.650;10.720;2022-09-09T01:54:31;2.10;;;2.00;;
3006;SDS011;1513;47.650;10.720;2022-09-09T01:57:39;1.97;;;1.87;;
3006;SDS011;1513;47.650;10.720;2022-09-09T02:01:06;2.17;;;1.73;;
3006;SDS011;1513;47.650;10.720;2022-09-09T02:07:50;4.80;;;1.83;;
3006;SDS011;1513;47.650;10.720;2022-09-09T02:11:30;3.33;;;1.80;;
3006;SDS011;1513;47.650;10.720;2022-09-09T02:14:30;2.40;;;1.60;;
3006;SDS011;1513;47.650;10.720;2022-09-09T02:17:36;1.83;;;1.60;;
3006;SDS011;1513;47.650;10.720;2022-09-09T02:20:42;4.07;;;1.90;;
3006;SDS011;1513;47.650;10.720;2022-09-09T02:23:47;1.67;;;1.57;;
3006;SDS011;1513;47.650;10.720;2022-09-09T02:26:54;2.40;;;1.77;;
3006;SDS011;1513;47.650;10.720;2022-09-09T02:29:59;3.10;;;1.80;;
3006;SDS011;1513;47.650;10.720;2022-09-09T02:33:05;1.90;;;1.70;;
3006;SDS011;1513;47.650;10.720;2022-09-09T02:36:13;3.30;;;1.80;;
3006;SDS011;1513;47.650;10.720;2022-09-09T02:39:19;1.70;;;1.47;;
3006;SDS011;1513;47.650;10.720;2022-09-09T02:42:22;3.20;;;2.00;;
3006;SDS011;1513;47.650;10.720;2022-09-09T02:45:49;2.13;;;1.83;;
3006;SDS011;1513;47.650;10.720;2022-09-09T02:49:09;3.47;;;2.00;;
3006;SDS011;1513;47.650;10.720;2022-09-09T02:59:06;1.93;;;1.80;;
3006;SDS011;1513;47.650;10.720;2022-09-09T03:02:10;4.93;;;2.33;;
3006;SDS011;1513;47.650;10.720;2022-09-09T03:05:15;5.70;;;1.90;;
3006;SDS011;1513;47.650;10.720;2022-09-09T03:08:19;4.90;;;2.10;;
3006;SDS011;1513;47.650;10.720;2022-09-09T03:11:22;2.97;;;2.20;;
3006;SDS011;1513;47.650;10.720;2022-09-09T03:14:26;2.83;;;2.63;;
3006;SDS011;1513;47.650;10.720;2022-09-09T03:17:29;4.73;;;2.90;;
3006;SDS011;1513;47.650;10.720;2022-09-09T03:20:33;5.87;;;3.13;;
3006;SDS011;1513;47.650;10.720;2022-09-09T03:23:37;3.77;;;3.17;;
3006;SDS011;1513;47.650;10.720;2022-09-09T03:26:40;4.37;;;2.60;;
3006;SDS011;1513;47.650;10.720;2022-09-09T03:29:47;1.80;;;1.70;;
3006;SDS011;1513;47.650;10.720;2022-09-09T03:32:53;1.30;;;1.20;;
3006;SDS011;1513;47.650;10.720;2022-09-09T03:35:57;2.93;;;1.40;;
3006;SDS011;1513;47.650;10.720;2022-09-09T03:39:01;1.73;;;1.60;;
3006;SDS011;1513;47.650;10.720;2022-09-09T03:42:05;2.13;;;1.90;;
3006;SDS011;1513;47.650;10.720;2022-09-09T03:45:09;6.40;;;1.83;;
3006;SDS011;1513;47.650;10.720;2022-09-09T03:48:13;4.20;;;1.70;;
3006;SDS011;1513;47.650;10.720;2022-09-09T03:51:18;2.63;;;1.30;;
3006;SDS011;1513;47.650;10.720;2022-09-09T03:54:23;3.23;;;2.37;;
3006;SDS011;1513;47.650;10.720;2022-09-09T03:57:27;2.57;;;1.47;;
3006;SDS011;1513;47.650;10.720;2022-09-09T04:00:32;2.50;;;1.33;;
3006;SDS011;1513;47.650;10.720;2022-09-09T04:03:36;1.63;;;1.53;;
3006;SDS011;1513;47.650;10.720;2022-09-09T04:06:40;4.67;;;1.20;;
3006;SDS011;1513;47.650;10.720;2022-09-09T04:09:44;1.40;;;1.30;;
3006;SDS011;1513;47.650;10.720;2022-09-09T04:12:47;2.00;;;1.43;;
3006;SDS011;1513;47.650;10.720;2022-09-09T04:15:51;1.60;;;1.30;;
3006;SDS011;1513;47.650;10.720;2022-09-09T04:18:59;1.83;;;1.07;;
3006;SDS011;1513;47.650;10.720;2022-09-09T04:22:03;1.50;;;1.40;;
3006;SDS011;1513;47.650;10.720;2022-09-09T04:25:07;4.30;;;2.40;;
3006;SDS011;1513;47.650;10.720;2022-09-09T04:28:11;3.30;;;2.50;;
3006;SDS011;1513;47.650;10.720;2022-09-09T04:31:16;4.77;;;3.60;;
3006;SDS011;1513;47.650;10.720;2022-09-09T04:34:22;2.83;;;2.53;;
3006;SDS011;1513;47.650;10.720;2022-09-09T04:37:26;10.50;;;7.40;;
3006;SDS011;1513;47.650;10.720;2022-09-09T04:40:29;7.07;;;4.30;;
3006;SDS011;1513;47.650;10.720;2022-09-09T04:43:33;5.10;;;4.13;;
3006;SDS011;1513;47.650;10.720;2022-09-09T04:46:37;8.33;;;3.33;;
3006;SDS011;1513;47.650;10.720;2022-09-09T04:49:40;1.67;;;1.40;;
3006;SDS011;1513;47.650;10.720;2022-09-09T04:52:44;5.50;;;1.50;;
3006;SDS011;1513;47.650;10.720;2022-09-09T04:55:47;2.47;;;1.30;;
3006;SDS011;1513;47.650;10.720;2022-09-09T04:58:51;1.67;;;1.30;;
3006;SDS011;1513;47.650;10.720;2022-09-09T05:01:56;2.40;;;1.20;;
3006;SDS011;1513;47.650;10.720;2022-09-09T05:04:59;1.40;;;1.30;;
3006;SDS011;1513;47.650;10.720;2022-09-09T05:08:03;1.60;;;1.50;;
3006;SDS011;1513;47.650;10.720;2022-09-09T05:14:26;1.53;;;1.37;;
3006;SDS011;1513;47.650;10.720;2022-09-09T05:17:30;1.63;;;1.20;;
3006;SDS011;1513;47.650;10.720;2022-09-09T05:20:33;9.63;;;2.63;;
3006;SDS011;1513;47.650;10.720;2022-09-09T05:23:37;13.13;;;2.10;;
3006;SDS011;1513;47.650;10.720;2022-09-09T05:26:41;10.37;;;2.00;;
3006;SDS011;1513;47.650;10.720;2022-09-09T05:29:45;12.63;;;2.17;;
3006;SDS011;1513;47.650;10.720;2022-09-09T05:32:50;4.33;;;1.93;;
3006;SDS011;1513;47.650;10.720;2022-09-09T05:36:03;7.63;;;2.13;;
3006;SDS011;1513;47.650;10.720;2022-09-09T05:39:08;5.03;;;1.73;;
3006;SDS011;1513;47.650;10.720;2022-09-09T05:42:14;2.20;;;1.47;;
3006;SDS011;1513;47.650;10.720;2022-09-09T05:45:18;2.13;;;1.33;;
3006;SDS011;1513;47.650;10.720;2022-09-09T05:48:22;3.23;;;1.37;;
3006;SDS011;1513;47.650;10.720;2022-09-09T05:51:26;3.33;;;1.10;;
3006;SDS011;1513;47.650;10.720;2022-09-09T05:54:32;1.20;;;1.10;;
3006;SDS011;1513;47.650;10.720;2022-09-09T05:57:35;2.33;;;1.30;;
3006;SDS011;1513;47.650;10.720;2022-09-09T06:00:39;1.40;;;1.30;;
3006;SDS011;1513;47.650;10.720;2022-09-09T06:03:43;1.87;;;1.30;;
3006;SDS011;1513;47.650;10.720;2022-09-09T06:06:47;4.63;;;1.10;;
3006;SDS011;1513;47.650;10.720;2022-09-09T06:09:51;4.63;;;1.30;;
3006;SDS011;1513;47.650;10.720;2022-09-09T06:12:55;1.30;;;1.20;;
3006;SDS011;1513;47.650;10.720;2022-09-09T06:15:58;5.33;;;1.60;;
3006;SDS011;1513;47.650;10.720;2022-09-09T06:19:02;1.73;;;1.30;;
3006;SDS011;1513;47.650;10.720;2022-09-09T06:22:06;1.27;;;1.13;;
3006;SDS011;1513;47.650;10.720;2022-09-09T06:25:12;5.73;;;1.53;;
3006;SDS011;1513;47.650;10.720;2022-09-09T06:28:15;2.60;;;1.20;;
3006;SDS011;1513;47.650;10.720;2022-09-09T06:31:21;1.43;;;1.33;;
3006;SDS011;1513;47.650;10.720;2022-09-09T06:34:25;2.50;;;1.20;;
3006;SDS011;1513;47.650;10.720;2022-09-09T06:37:29;2.37;;;1.60;;
3006;SDS011;1513;47.650;10.720;2022-09-09T06:40:33;3.47;;;1.70;;
3006;SDS011;1513;47.650;10.720;2022-09-09T06:43:37;3.10;;;1.77;;
3006;SDS011;1513;47.650;10.720;2022-09-09T06:46:41;3.47;;;1.30;;
3006;SDS011;1513;47.650;10.720;2022-09-09T06:49:45;2.07;;;1.13;;
3006;SDS011;1513;47.650;10.720;2022-09-09T06:52:49;3.60;;;1.37;;
3006;SDS011;1513;47.650;10.720;2022-09-09T06:55:53;2.13;;;1.00;;
3006;SDS011;1513;47.650;10.720;2022-09-09T06:58:58;2.70;;;1.20;;
3006;SDS011;1513;47.650;10.720;2022-09-09T07:02:03;2.60;;;0.90;;
3006;SDS011;1513;47.650;10.720;2022-09-09T07:05:07;1.60;;;0.93;;
3006;SDS011;1513;47.650;10.720;2022-09-09T07:08:11;2.90;;;1.13;;
3006;SDS011;1513;47.650;10.720;2022-09-09T07:11:15;1.53;;;1.13;;
3006;SDS011;1513;47.650;10.720;2022-09-09T07:14:19;10.13;;;0.90;;
3006;SDS011;1513;47.650;10.720;2022-09-09T07:17:24;2.37;;;0.83;;
3006;SDS011;1513;47.650;10.720;2022-09-09T07:20:30;1.23;;;0.70;;
3006;SDS011;1513;47.650;10.720;2022-09-09T07:23:34;1.73;;;0.80;;
3006;SDS011;1513;47.650;10.720;2022-09-09T07:26:40;1.73;;;0.97;;
3006;SDS011;1513;47.650;10.720;2022-09-09T07:29:44;1.20;;;0.80;;
3006;SDS011;1513;47.650;10.720;2022-09-09T07:32:50;3.00;;;2.00;;
3006;SDS011;1513;47.650;10.720;2022-09-09T07:35:54;1.90;;;0.80;;
3006;SDS011;1513;47.650;10.720;2022-09-09T07:39:25;3.90;;;1.60;;
3006;SDS011;1513;47.650;10.720;2022-09-09T07:42:29;15.57;;;5.90;;
3006;SDS011;1513;47.650;10.720;2022-09-09T07:45:33;7.07;;;2.57;;
3006;SDS011;1513;47.650;10.720;2022-09-09T07:48:44;6.73;;;2.60;;
3006;SDS011;1513;47.650;10.720;2022-09-09T07:51:55;9.23;;;2.50;;
3006;SDS011;1513;47.650;10.720;2022-09-09T07:54:58;4.20;;;1.63;;
3006;SDS011;1513;47.650;10.720;2022-09-09T07:58:04;2.90;;;1.70;;
3006;SDS011;1513;47.650;10.720;2022-09-09T08:01:08;0.60;;;0.60;;
3006;SDS011;1513;47.650;10.720;2022-09-09T08:04:15;4.30;;;0.97;;
3006;SDS011;1513;47.650;10.720;2022-09-09T08:07:20;4.73;;;0.90;;
3006;SDS011;1513;47.650;10.720;2022-09-09T08:10:23;8.90;;;0.87;;
3006;SDS011;1513;47.650;10.720;2022-09-09T08:13:27;1.57;;;1.10;;
3006;SDS011;1513;47.650;10.720;2022-09-09T08:16:31;1.63;;;1.10;;
3006;SDS011;1513;47.650;10.720;2022-09-09T08:19:39;1.10;;;0.80;;
3006;SDS011;1513;47.650;10.720;2022-09-09T08:22:42;0.70;;;0.70;;
3006;SDS011;1513;47.650;10.720;2022-09-09T08:25:46;2.00;;;0.67;;
3006;SDS011;1513;47.650;10.720;2022-09-09T08:28:52;2.00;;;1.03;;
3006;SDS011;1513;47.650;10.720;2022-09-09T08:31:57;4.83;;;1.80;;
3006;SDS011;1513;47.650;10.720;2022-09-09T08:35:02;2.23;;;1.03;;
3006;SDS011;1513;47.650;10.720;2022-09-09T08:38:06;1.20;;;1.10;;
3006;SDS011;1513;47.650;10.720;2022-09-09T08:45:05;2.83;;;0.83;;
3006;SDS011;1513;47.650;10.720;2022-09-09T08:48:12;0.60;;;0.60;;
3006;SDS011;1513;47.650;10.720;2022-09-09T08:51:28;2.37;;;0.70;;
3006;SDS011;1513;47.650;10.720;2022-09-09T08:54:34;1.03;;;0.90;;
3006;SDS011;1513;47.650;10.720;2022-09-09T08:57:39;1.10;;;0.80;;
3006;SDS011;1513;47.650;10.720;2022-09-09T09:10:50;0.80;;;0.60;;
3006;SDS011;1513;47.650;10.720;2022-09-09T09:17:19;1.60;;;0.67;;
3006;SDS011;1513;47.650;10.720;2022-09-09T09:20:29;0.70;;;0.60;;
3006;SDS011;1513;47.650;10.720;2022-09-09T09:23:49;1.73;;;0.70;;
3006;SDS011;1513;47.650;10.720;2022-09-09T09:27:04;1.53;;;0.70;;
3006;SDS011;1513;47.650;10.720;2022-09-09T09:30:20;1.30;;;0.73;;
3006;SDS011;1513;47.650;10.720;2022-09-09T09:36:53;2.70;;;0.80;;
3006;SDS011;1513;47.650;10.720;2022-09-09T09:40:14;1.23;;;0.90;;
3006;SDS011;1513;47.650;10.720;2022-09-09T09:43:20;0.73;;;0.73;;
3006;SDS011;1513;47.650;10.720;2022-09-09T09:46:27;1.20;;;0.80;;
3006;SDS011;1513;47.650;10.720;2022-09-09T09:49:31;0.53;;;0.53;;
3006;SDS011;1513;47.650;10.720;2022-09-09T09:52:35;0.50;;;0.50;;
3006;SDS011;1513;47.650;10.720;2022-09-09T09:55:51;1.27;;;0.90;;
3006;SDS011;1513;47.650;10.720;2022-09-09T09:59:00;0.60;;;0.60;;
3006;SDS011;1513;47.650;10.720;2022-09-09T10:02:18;1.23;;;0.60;;
3006;SDS011;1513;47.650;10.720;2022-09-09T10:05:24;1.80;;;0.60;;
3006;SDS011;1513;47.650;10.720;2022-09-09T10:08:29;0.93;;;0.80;;
3006;SDS011;1513;47.650;10.720;2022-09-09T10:11:55;1.10;;;0.63;;
3006;SDS011;1513;47.650;10.720;2022-09-09T10:16:04;2.87;;;0.97;;
3006;SDS011;1513;47.650;10.720;2022-09-09T10:19:00;1.20;;;0.60;;
3006;SDS011;1513;47.650;10.720;2022-09-09T10:22:27;1.00;;;0.60;;
3006;SDS011;1513;47.650;10.720;2022-09-09T10:25:43;1.13;;;0.60;;
3006;SDS011;1513;47.650;10.720;2022-09-09T10:35:46;1.03;;;0.57;;
3006;SDS011;1513;47.650;10.720;2022-09-09T10:39:04;0.80;;;0.77;;
3006;SDS011;1513;47.650;10.720;2022-09-09T10:42:21;1.37;;;0.63;;
3006;SDS011;1513;47.650;10.720;2022-09-09T10:52:22;1.20;;;1.10;;
3006;SDS011;1513;47.650;10.720;2022-09-09T10:55:56;2.80;;;0.90;;
3006;SDS011;1513;47.650;10.720;2022-09-09T11:02:17;0.90;;;0.90;;
3006;SDS011;1513;47.650;10.720;2022-09-09T11:05:36;2.73;;;0.90;;
3006;SDS011;1513;47.650;10.720;2022-09-09T11:08:49;3.40;;;1.07;;
3006;SDS011;1513;47.650;10.720;2022-09-09T11:11:55;1.67;;;1.00;;
3006;SDS011;1513;47.650;10.720;2022-09-09T11:15:04;0.80;;;0.80;;
3006;SDS011;1513;47.650;10.720;2022-09-09T11:18:13;4.23;;;1.00;;
3006;SDS011;1513;47.650;10.720;2022-09-09T11:21:23;1.17;;;0.90;;
3006;SDS011;1513;47.650;10.720;2022-09-09T11:24:57;1.20;;;1.03;;
3006;SDS011;1513;47.650;10.720;2022-09-09T11:32:12;2.30;;;1.00;;
3006;SDS011;1513;47.650;10.720;2022-09-09T11:35:46;1.33;;;1.03;;
3006;SDS011;1513;47.650;10.720;2022-09-09T11:42:20;1.23;;;1.00;;
3006;SDS011;1513;47.650;10.720;2022-09-09T11:45:26;1.00;;;1.00;;
3006;SDS011;1513;47.650;10.720;2022-09-09T11:48:33;0.90;;;0.90;;
3006;SDS011;1513;47.650;10.720;2022-09-09T11:51:38;2.50;;;1.10;;
3006;SDS011;1513;47.650;10.720;2022-09-09T11:54:47;2.30;;;0.90;;
3006;SDS011;1513;47.650;10.720;2022-09-09T11:58:01;3.43;;;0.90;;
3006;SDS011;1513;47.650;10.720;2022-09-09T12:01:13;2.43;;;0.70;;
3006;SDS011;1513;47.650;10.720;2022-09-09T12:04:39;2.10;;;0.80;;
3006;SDS011;1513;47.650;10.720;2022-09-09T12:07:53;1.10;;;0.80;;
3006;SDS011;1513;47.650;10.720;2022-09-09T12:11:00;0.93;;;0.70;;
3006;SDS011;1513;47.650;10.720;2022-09-09T12:14:18;0.80;;;0.77;;
3006;SDS011;1513;47.650;10.720;2022-09-09T12:17:27;1.43;;;1.00;;
3006;SDS011;1513;47.650;10.720;2022-09-09T12:20:34;1.27;;;0.80;;
3006;SDS011;1513;47.650;10.720;2022-09-09T12:23:40;2.93;;;1.00;;
3006;SDS011;1513;47.650;10.720;2022-09-09T12:30:11;1.27;;;0.80;;
3006;SDS011;1513;47.650;10.720;2022-09-09T12:33:19;1.03;;;1.00;;
3006;SDS011;1513;47.650;10.720;2022-09-09T12:36:29;2.93;;;0.70;;
3006;SDS011;1513;47.650;10.720;2022-09-09T12:39:35;0.70;;;0.70;;
3006;SDS011;1513;47.650;10.720;2022-09-09T12:42:45;1.13;;;0.70;;
3006;SDS011;1513;47.650;10.720;2022-09-09T12:45:49;1.17;;;0.73;;
3006;SDS011;1513;47.650;10.720;2022-09-09T12:49:00;2.17;;;1.00;;
3006;SDS011;1513;47.650;10.720;2022-09-09T12:52:04;0.67;;;0.67;;
3006;SDS011;1513;47.650;10.720;2022-09-09T12:55:27;1.83;;;0.67;;
3006;SDS011;1513;47.650;10.720;2022-09-09T12:58:33;0.80;;;0.80;;
3006;SDS011;1513;47.650;10.720;2022-09-09T13:01:38;2.40;;;0.70;;
3006;SDS011;1513;47.650;10.720;2022-09-09T13:04:41;1.00;;;1.00;;
3006;SDS011;1513;47.650;10.720;2022-09-09T13:07:45;1.00;;;0.80;;
3006;SDS011;1513;47.650;10.720;2022-09-09T13:13:57;1.23;;;1.10;;
3006;SDS011;1513;47.650;10.720;2022-09-09T13:17:02;0.60;;;0.60;;
3006;SDS011;1513;47.650;10.720;2022-09-09T13:20:15;1.50;;;0.73;;
3006;SDS011;1513;47.650;10.720;2022-09-09T13:23:20;1.43;;;0.90;;
3006;SDS011;1513;47.650;10.720;2022-09-09T13:26:25;3.23;;;1.10;;
3006;SDS011;1513;47.650;10.720;2022-09-09T13:29:32;1.07;;;1.00;;
3006;SDS011;1513;47.650;10.720;2022-09-09T13:32:35;4.67;;;1.17;;
3006;SDS011;1513;47.650;10.720;2022-09-09T13:36:01;0.80;;;0.80;;
3006;SDS011;1513;47.650;10.720;2022-09-09T13:39:15;1.10;;;0.97;;
3006;SDS011;1513;47.650;10.720;2022-09-09T13:42:24;2.70;;;1.00;;
3006;SDS011;1513;47.650;10.720;2022-09-09T13:45:30;1.00;;;1.00;;
3006;SDS011;1513;47.650;10.720;2022-09-09T13:48:34;1.00;;;1.00;;
3006;SDS011;1513;47.650;10.720;2022-09-09T13:54:42;0.83;;;0.83;;
3006;SDS011;1513;47.650;10.720;2022-09-09T13:57:56;1.00;;;0.80;;
3006;SDS011;1513;47.650;10.720;2022-09-09T14:01:03;1.80;;;0.90;;
3006;SDS011;1513;47.650;10.720;2022-09-09T14:04:07;1.70;;;0.80;;
3006;SDS011;1513;47.650;10.720;2022-09-09T14:07:11;0.70;;;0.67;;
3006;SDS011;1513;47.650;10.720;2022-09-09T14:10:16;0.70;;;0.70;;
3006;SDS011;1513;47.650;10.720;2022-09-09T14:13:20;0.80;;;0.77;;
3006;SDS011;1513;47.650;10.720;2022-09-09T14:16:24;0.60;;;0.60;;
3006;SDS011;1513;47.650;10.720;2022-09-09T14:19:29;1.63;;;0.70;;
3006;SDS011;1513;47.650;10.720;2022-09-09T14:22:33;0.70;;;0.60;;
3006;SDS011;1513;47.650;10.720;2022-09-09T14:25:39;1.43;;;1.30;;
3006;SDS011;1513;47.650;10.720;2022-09-09T14:28:43;0.60;;;0.53;;
3006;SDS011;1513;47.650;10.720;2022-09-09T14:31:48;1.00;;;1.00;;
3006;SDS011;1513;47.650;10.720;2022-09-09T14:34:52;0.70;;;0.70;;
3006;SDS011;1513;47.650;10.720;2022-09-09T14:37:56;0.90;;;0.70;;
3006;SDS011;1513;47.650;10.720;2022-09-09T14:41:00;1.17;;;0.67;;
3006;SDS011;1513;47.650;10.720;2022-09-09T14:44:07;0.70;;;0.70;;
3006;SDS011;1513;47.650;10.720;2022-09-09T14:47:11;4.93;;;0.70;;
3006;SDS011;1513;47.650;10.720;2022-09-09T14:50:14;0.60;;;0.60;;
3006;SDS011;1513;47.650;10.720;2022-09-09T14:53:18;0.77;;;0.70;;
3006;SDS011;1513;47.650;10.720;2022-09-09T14:56:23;0.60;;;0.60;;
3006;SDS011;1513;47.650;10.720;2022-09-09T14:59:29;1.90;;;0.70;;
3006;SDS011;1513;47.650;10.720;2022-09-09T15:02:33;0.70;;;0.70;;
3006;SDS011;1513;47.650;10.720;2022-09-09T15:05:36;0.60;;;0.60;;
3006;SDS011;1513;47.650;10.720;2022-09-09T15:08:40;0.70;;;0.70;;
3006;SDS011;1513;47.650;10.720;2022-09-09T15:11:45;0.80;;;0.80;;
3006;SDS011;1513;47.650;10.720;2022-09-09T15:14:49;0.60;;;0.60;;
3006;SDS011;1513;47.650;10.720;2022-09-09T15:17:53;2.93;;;1.83;;
3006;SDS011;1513;47.650;10.720;2022-09-09T15:20:57;1.10;;;0.80;;
3006;SDS011;1513;47.650;10.720;2022-09-09T15:24:02;2.03;;;0.83;;
3006;SDS011;1513;47.650;10.720;2022-09-09T15:27:07;1.03;;;0.93;;
3006;SDS011;1513;47.650;10.720;2022-09-09T15:30:10;1.60;;;1.00;;
3006;SDS011;1513;47.650;10.720;2022-09-09T15:33:14;1.13;;;0.90;;
3006;SDS011;1513;47.650;10.720;2022-09-09T15:39:22;1.10;;;0.70;;
3006;SDS011;1513;47.650;10.720;2022-09-09T15:42:26;2.20;;;1.17;;
3006;SDS011;1513;47.650;10.720;2022-09-09T15:45:29;2.20;;;1.10;;
3006;SDS011;1513;47.650;10.720;2022-09-09T15:48:35;1.60;;;0.80;;
3006;SDS011;1513;47.650;10.720;2022-09-09T15:51:39;0.80;;;0.80;;
3006;SDS011;1513;47.650;10.720;2022-09-09T15:54:44;0.97;;;0.80;;
3006;SDS011;1513;47.650;10.720;2022-09-09T15:57:48;0.70;;;0.70;;
3006;SDS011;1513;47.650;10.720;2022-09-09T16:00:51;4.70;;;0.90;;
3006;SDS011;1513;47.650;10.720;2022-09-09T16:03:56;0.60;;;0.60;;
3006;SDS011;1513;47.650;10.720;2022-09-09T16:07:04;0.83;;;0.80;;
3006;SDS011;1513;47.650;10.720;2022-09-09T16:10:08;0.83;;;0.83;;
3006;SDS011;1513;47.650;10.720;2022-09-09T16:13:11;0.90;;;0.70;;
3006;SDS011;1513;47.650;10.720;2022-09-09T16:16:16;2.33;;;0.90;;
3006;SDS011;1513;47.650;10.720;2022-09-09T16:19:22;0.80;;;0.70;;
3006;SDS011;1513;47.650;10.720;2022-09-09T16:22:25;0.70;;;0.60;;
3006;SDS011;1513;47.650;10.720;2022-09-09T16:25:29;2.10;;;1.20;;
3006;SDS011;1513;47.650;10.720;2022-09-09T16:28:32;1.43;;;0.70;;
3006;SDS011;1513;47.650;10.720;2022-09-09T16:31:36;0.83;;;0.80;;
3006;SDS011;1513;47.650;10.720;2022-09-09T16:34:40;0.77;;;0.70;;
3006;SDS011;1513;47.650;10.720;2022-09-09T16:37:45;1.13;;;0.70;;
3006;SDS011;1513;47.650;10.720;2022-09-09T16:40:48;0.87;;;0.87;;
3006;SDS011;1513;47.650;10.720;2022-09-09T16:43:56;0.80;;;0.80;;
3006;SDS011;1513;47.650;10.720;2022-09-09T16:47:01;0.60;;;0.60;;
3006;SDS011;1513;47.650;10.720;2022-09-09T16:50:05;2.13;;;1.30;;
3006;SDS011;1513;47.650;10.720;2022-09-09T16:53:09;1.30;;;0.83;;
3006;SDS011;1513;47.650;10.720;2022-09-09T16:56:14;0.90;;;0.90;;
3006;SDS011;1513;47.650;10.720;2022-09-09T16:59:20;0.70;;;0.70;;
3006;SDS011;1513;47.650;10.720;2022-09-09T17:02:25;0.97;;;0.90;;
3006;SDS011;1513;47.650;10.720;2022-09-09T17:05:29;3.20;;;1.37;;
3006;SDS011;1513;47.650;10.720;2022-09-09T17:08:32;1.30;;;1.20;;
3006;SDS011;1513;47.650;10.720;2022-09-09T17:11:37;0.93;;;0.80;;
3006;SDS011;1513;47.650;10.720;2022-09-09T17:14:41;1.00;;;0.80;;
3006;SDS011;1513;47.650;10.720;2022-09-09T17:17:45;0.80;;;0.80;;
3006;SDS011;1513;47.650;10.720;2022-09-09T17:20:51;1.37;;;1.00;;
3006;SDS011;1513;47.650;10.720;2022-09-09T17:23:55;0.83;;;0.77;;
3006;SDS011;1513;47.650;10.720;2022-09-09T17:26:59;1.27;;;0.70;;
3006;SDS011;1513;47.650;10.720;2022-09-09T17:30:04;0.97;;;0.87;;
3006;SDS011;1513;47.650;10.720;2022-09-09T17:33:08;0.87;;;0.60;;
3006;SDS011;1513;47.650;10.720;2022-09-09T17:36:16;1.27;;;0.90;;
3006;SDS011;1513;47.650;10.720;2022-09-09T17:39:24;0.60;;;0.60;;
3006;SDS011;1513;47.650;10.720;2022-09-09T17:42:28;5.40;;;0.70;;
3006;SDS011;1513;47.650;10.720;2022-09-09T17:45:32;1.63;;;0.73;;
3006;SDS011;1513;47.650;10.720;2022-09-09T17:48:36;0.80;;;0.80;;
3006;SDS011;1513;47.650;10.720;2022-09-09T17:51:40;1.03;;;0.50;;
3006;SDS011;1513;47.650;10.720;2022-09-09T17:54:45;1.97;;;0.80;;
3006;SDS011;1513;47.650;10.720;2022-09-09T17:57:48;0.87;;;0.87;;
3006;SDS011;1513;47.650;10.720;2022-09-09T18:00:51;0.87;;;0.80;;
3006;SDS011;1513;47.650;10.720;2022-09-09T18:03:55;0.93;;;0.70;;
3006;SDS011;1513;47.650;10.720;2022-09-09T18:07:00;1.33;;;0.70;;
3006;SDS011;1513;47.650;10.720;2022-09-09T18:10:04;0.90;;;0.67;;
3006;SDS011;1513;47.650;10.720;2022-09-09T18:13:07;4.70;;;0.90;;
3006;SDS011;1513;47.650;10.720;2022-09-09T18:16:11;1.37;;;0.80;;
3006;SDS011;1513;47.650;10.720;2022-09-09T18:19:16;3.00;;;1.00;;
3006;SDS011;1513;47.650;10.720;2022-09-09T18:22:22;5.50;;;0.63;;
3006;SDS011;1513;47.650;10.720;2022-09-09T18:25:26;3.90;;;0.90;;
3006;SDS011;1513;47.650;10.720;2022-09-09T18:28:29;1.03;;;0.90;;
3006;SDS011;1513;47.650;10.720;2022-09-09T18:31:34;0.80;;;0.80;;
3006;SDS011;1513;47.650;10.720;2022-09-09T18:34:39;1.00;;;0.90;;
3006;SDS011;1513;47.650;10.720;2022-09-09T18:37:42;0.93;;;0.60;;
3006;SDS011;1513;47.650;10.720;2022-09-09T18:40:48;1.17;;;0.90;;
3006;SDS011;1513;47.650;10.720;2022-09-09T18:43:54;0.80;;;0.80;;
3006;SDS011;1513;47.650;10.720;2022-09-09T18:47:02;1.67;;;0.90;;
3006;SDS011;1513;47.650;10.720;2022-09-09T18:50:07;0.83;;;0.83;;
3006;SDS011;1513;47.650;10.720;2022-09-09T18:53:10;2.30;;;1.10;;
3006;SDS011;1513;47.650;10.720;2022-09-09T18:56:16;0.90;;;0.90;;
3006;SDS011;1513;47.650;10.720;2022-09-09T18:59:20;0.90;;;0.90;;
3006;SDS011;1513;47.650;10.720;2022-09-09T19:02:25;1.20;;;0.80;;
3006;SDS011;1513;47.650;10.720;2022-09-09T19:05:29;0.80;;;0.80;;
3006;SDS011;1513;47.650;10.720;2022-09-09T19:08:33;4.23;;;1.00;;
3006;SDS011;1513;47.650;10.720;2022-09-09T19:11:40;1.30;;;1.20;;
3006;SDS011;1513;47.650;10.720;2022-09-09T19:14:44;0.90;;;0.90;;
3006;SDS011;1513;47.650;10.720;2022-09-09T19:17:48;2.40;;;0.90;;
3006;SDS011;1513;47.650;10.720;2022-09-09T19:20:52;1.20;;;1.10;;
3006;SDS011;1513;47.650;10.720;2022-09-09T19:24:00;1.80;;;0.90;;
3006;SDS011;1513;47.650;10.720;2022-09-09T19:27:09;5.77;;;1.20;;
3006;SDS011;1513;47.650;10.720;2022-09-09T19:30:13;1.13;;;1.03;;
3006;SDS011;1513;47.650;10.720;2022-09-09T19:33:16;1.40;;;1.30;;
3006;SDS011;1513;47.650;10.720;2022-09-09T19:36:22;1.23;;;1.13;;
3006;SDS011;1513;47.650;10.720;2022-09-09T19:39:29;2.10;;;0.97;;
3006;SDS011;1513;47.650;10.720;2022-09-09T19:42:35;1.50;;;1.10;;
3006;SDS011;1513;47.650;10.720;2022-09-09T19:45:38;4.27;;;1.10;;
3006;SDS011;1513;47.650;10.720;2022-09-09T19:48:43;1.73;;;1.20;;
3006;SDS011;1513;47.650;10.720;2022-09-09T19:51:48;1.37;;;1.00;;
3006;SDS011;1513;47.650;10.720;2022-09-09T19:54:51;2.50;;;1.40;;
3006;SDS011;1513;47.650;10.720;2022-09-09T19:57:56;1.33;;;1.23;;
3006;SDS011;1513;47.650;10.720;2022-09-09T20:01:07;1.70;;;1.20;;
3006;SDS011;1513;47.650;10.720;2022-09-09T20:04:13;1.53;;;1.13;;
3006;SDS011;1513;47.650;10.720;2022-09-09T20:07:16;1.37;;;1.20;;
3006;SDS011;1513;47.650;10.720;2022-09-09T20:10:20;3.53;;;1.50;;
3006;SDS011;1513;47.650;10.720;2022-09-09T20:13:24;0.90;;;0.90;;
3006;SDS011;1513;47.650;10.720;2022-09-09T20:16:29;4.50;;;1.40;;
3006;SDS011;1513;47.650;10.720;2022-09-09T20:19:33;1.90;;;1.10;;
3006;SDS011;1513;47.650;10.720;2022-09-09T20:22:37;1.20;;;1.10;;
3006;SDS011;1513;47.650;10.720;2022-09-09T20:25:40;4.27;;;1.70;;
3006;SDS011;1513;47.650;10.720;2022-09-09T20:28:44;4.10;;;1.03;;
3006;SDS011;1513;47.650;10.720;2022-09-09T20:31:48;5.60;;;1.30;;
3006;SDS011;1513;47.650;10.720;2022-09-09T20:34:52;1.00;;;1.00;;
3006;SDS011;1513;47.650;10.720;2022-09-09T20:37:56;6.50;;;1.40;;
3006;SDS011;1513;47.650;10.720;2022-09-09T20:41:02;1.80;;;1.37;;